createdAt,value
2023-01-29T00:01:23.445Z,8.44
2023-01-29T00:03:52.159Z,8.46
2023-01-29T00:06:19.169Z,8.46
2023-01-29T00:08:46.942Z,8.42
2023-01-29T00:11:14.267Z,8.37
2023-01-29T00:13:41.608Z,8.39
2023-01-29T00:16:08.677Z,8.37
2023-01-29T00:18:38.779Z,8.36
2023-01-29T00:21:09.238Z,8.37
2023-01-29T00:23:35.958Z,8.41
2023-01-29T00:26:02.625Z,8.37
2023-01-29T00:28:29.466Z,8.39
2023-01-29T00:30:56.272Z,8.42
2023-01-29T00:33:23.023Z,8.41
2023-01-29T00:35:49.710Z,8.40
2023-01-29T00:38:16.352Z,8.41
2023-01-29T00:40:53.553Z,8.41
2023-01-29T00:43:30.606Z,8.42
2023-01-29T00:45:57.423Z,8.39
2023-01-29T00:48:24.143Z,8.39
2023-01-29T00:50:50.779Z,8.40
2023-01-29T00:53:17.482Z,8.39
2023-01-29T00:55:45.019Z,8.37
2023-01-29T00:58:11.783Z,8.38
2023-01-29T01:00:38.519Z,8.36
2023-01-29T01:03:06.217Z,8.37
2023-01-29T01:05:33.555Z,8.41
2023-01-29T01:08:00.325Z,8.41
2023-01-29T01:10:29.110Z,8.41
2023-01-29T01:12:56.053Z,8.42
2023-01-29T01:15:23.676Z,8.41
2023-01-29T01:17:52.923Z,8.39
2023-01-29T01:20:19.830Z,8.36
2023-01-29T01:22:46.548Z,8.35
2023-01-29T01:25:13.273Z,8.32
2023-01-29T01:27:41.514Z,8.27
2023-01-29T01:30:10.743Z,8.26
2023-01-29T01:32:37.466Z,8.28
2023-01-29T01:35:04.413Z,8.27
2023-01-29T01:37:31.299Z,8.26
2023-01-29T01:39:58.894Z,8.26
2023-01-29T01:42:30.801Z,8.23
2023-01-29T01:45:01.037Z,8.23
2023-01-29T01:47:31.620Z,8.21
2023-01-29T01:50:02.895Z,8.16
2023-01-29T01:52:31.754Z,8.18
2023-01-29T01:54:59.225Z,8.13
2023-01-29T01:57:27.800Z,8.11
2023-01-29T01:59:57.823Z,8.12
2023-01-29T02:02:34.220Z,8.13
2023-01-29T02:05:10.655Z,8.14
2023-01-29T02:07:51.794Z,8.11
2023-01-29T02:10:18.962Z,8.05
2023-01-29T02:12:46.474Z,8.05
2023-01-29T02:15:13.323Z,8.02
2023-01-29T02:17:40.116Z,8.04
2023-01-29T02:20:14.907Z,8.05
2023-01-29T02:22:55.430Z,8.09
2023-01-29T02:25:31.597Z,8.13
2023-01-29T02:28:07.887Z,8.09
2023-01-29T02:30:40.867Z,8.10
2023-01-29T02:33:17.449Z,8.14
2023-01-29T02:35:46.942Z,8.18
2023-01-29T02:38:23.714Z,8.15
2023-01-29T02:40:51.629Z,8.15
2023-01-29T02:43:24.772Z,8.14
2023-01-29T02:46:01.837Z,8.13
2023-01-29T02:48:34.880Z,8.13
2023-01-29T02:51:05.976Z,8.11
2023-01-29T02:53:35.848Z,8.11
2023-01-29T02:56:08.433Z,8.10
2023-01-29T02:58:44.605Z,8.10
2023-01-29T03:01:18.276Z,8.07
2023-01-29T03:03:48.043Z,8.06
2023-01-29T03:06:22.720Z,8.05
2023-01-29T03:08:54.253Z,8.08
2023-01-29T03:11:21.378Z,8.08
2023-01-29T03:13:51.390Z,8.07
2023-01-29T03:16:27.509Z,8.09
2023-01-29T03:18:57.847Z,8.09
2023-01-29T03:21:50.949Z,8.06
2023-01-29T03:24:33.393Z,8.04
2023-01-29T03:27:12.460Z,8.04
2023-01-29T03:29:50.388Z,8.04
2023-01-29T03:32:18.764Z,8.04
2023-01-29T03:34:48.761Z,8.03
2023-01-29T03:37:20.415Z,8.01
2023-01-29T03:39:47.363Z,8.01
2023-01-29T03:42:23.301Z,8.01
2023-01-29T03:44:54.603Z,7.99
2023-01-29T03:47:27.999Z,7.99
2023-01-29T03:50:00.468Z,8.01
2023-01-29T03:52:35.178Z,8.00
2023-01-29T03:55:10.950Z,8.01
2023-01-29T03:57:45.916Z,8.00
2023-01-29T04:00:23.013Z,8.00
2023-01-29T04:02:49.918Z,7.99
2023-01-29T04:05:19.775Z,7.98
2023-01-29T04:07:47.554Z,7.99
2023-01-29T04:10:19.537Z,8.00
2023-01-29T04:12:48.563Z,8.02
2023-01-29T04:15:16.760Z,8.03
2023-01-29T04:17:45.917Z,8.02
2023-01-29T04:20:12.873Z,8.02
2023-01-29T04:22:40.519Z,8.04
2023-01-29T04:25:15.643Z,8.04
2023-01-29T04:27:46.533Z,8.04
2023-01-29T04:30:22.778Z,8.03
2023-01-29T04:32:59.249Z,8.01
2023-01-29T04:35:31.935Z,8.00
2023-01-29T04:38:08.440Z,8.00
2023-01-29T04:40:43.398Z,7.99
2023-01-29T04:43:16.073Z,7.99
2023-01-29T04:45:52.486Z,7.99
2023-01-29T04:48:28.980Z,7.97
2023-01-29T04:50:55.932Z,7.95
2023-01-29T04:53:22.837Z,7.95
2023-01-29T04:55:53.180Z,7.97
2023-01-29T04:58:29.197Z,7.97
2023-01-29T05:00:57.582Z,7.98
2023-01-29T05:03:26.703Z,7.98
2023-01-29T05:05:54.483Z,8.01
2023-01-29T05:08:22.937Z,8.02
2023-01-29T05:10:51.323Z,8.03
2023-01-29T05:13:19.222Z,8.00
2023-01-29T05:15:50.427Z,7.97
2023-01-29T05:18:17.159Z,7.96
2023-01-29T05:20:44.730Z,7.95
2023-01-29T05:23:19.689Z,7.94
2023-01-29T05:25:47.461Z,7.97
2023-01-29T05:28:17.588Z,7.97
2023-01-29T05:30:47.277Z,7.96
2023-01-29T05:33:15.597Z,7.96
2023-01-29T05:35:42.629Z,7.96
2023-01-29T05:38:09.688Z,7.95
2023-01-29T05:40:36.950Z,7.91
2023-01-29T05:43:04.101Z,7.87
2023-01-29T05:45:31.439Z,7.89
2023-01-29T05:47:58.923Z,7.90
2023-01-29T05:50:26.084Z,7.83
2023-01-29T05:53:02.508Z,7.83
2023-01-29T05:55:29.851Z,7.82
2023-01-29T05:57:56.526Z,7.86
2023-01-29T06:00:23.523Z,7.86
2023-01-29T06:02:50.741Z,7.87
2023-01-29T06:05:17.506Z,7.87
2023-01-29T06:07:45.584Z,7.88
2023-01-29T06:10:13.896Z,7.86
2023-01-29T06:12:41.338Z,7.88
2023-01-29T06:15:08.594Z,7.87
2023-01-29T06:17:35.673Z,7.89
2023-01-29T06:20:02.647Z,7.93
2023-01-29T06:22:29.386Z,7.93
2023-01-29T06:24:56.022Z,7.93
2023-01-29T06:27:22.887Z,7.96
2023-01-29T06:29:49.608Z,7.98
2023-01-29T06:32:16.318Z,7.96
2023-01-29T06:34:42.988Z,7.90
2023-01-29T06:37:09.713Z,7.85
2023-01-29T06:39:36.459Z,7.83
2023-01-29T06:42:03.275Z,7.87
2023-01-29T06:44:29.882Z,7.91
2023-01-29T06:46:56.555Z,7.91
2023-01-29T06:49:23.464Z,7.90
2023-01-29T06:51:50.213Z,7.88
2023-01-29T06:54:16.864Z,7.88
2023-01-29T06:56:43.643Z,7.92
2023-01-29T06:59:11.128Z,7.90
2023-01-29T07:01:41.496Z,7.82
2023-01-29T07:04:08.281Z,7.83
2023-01-29T07:06:35.108Z,7.89
2023-01-29T07:09:02.197Z,7.86
2023-01-29T07:11:28.799Z,7.83
2023-01-29T07:13:56.282Z,7.86
2023-01-29T07:16:23.713Z,7.88
2023-01-29T07:18:50.453Z,7.92
2023-01-29T07:21:17.147Z,7.96
2023-01-29T07:23:43.938Z,7.98
2023-01-29T07:26:10.733Z,8.03
2023-01-29T07:28:38.302Z,8.04
2023-01-29T07:31:05.516Z,8.04
2023-01-29T07:33:32.597Z,8.00
2023-01-29T07:35:59.376Z,7.97
2023-01-29T07:38:26.113Z,7.94
2023-01-29T07:40:53.322Z,7.94
2023-01-29T07:43:20.083Z,7.94
2023-01-29T07:45:46.883Z,7.94
2023-01-29T07:48:13.863Z,7.91
2023-01-29T07:50:41.120Z,7.93
2023-01-29T07:53:07.859Z,7.97
2023-01-29T07:55:34.535Z,7.98
2023-01-29T07:58:02.663Z,8.00
2023-01-29T08:00:30.274Z,8.04
2023-01-29T08:03:06.769Z,8.04
2023-01-29T08:05:33.860Z,8.09
2023-01-29T08:08:06.888Z,8.13
2023-01-29T08:10:35.329Z,8.18
2023-01-29T08:13:02.949Z,8.20
2023-01-29T08:15:30.005Z,8.23
2023-01-29T08:17:58.277Z,8.26
2023-01-29T08:20:25.786Z,8.27
2023-01-29T08:23:02.636Z,8.31
2023-01-29T08:25:29.859Z,8.35
2023-01-29T08:27:58.101Z,8.30
2023-01-29T08:30:26.696Z,8.31
2023-01-29T08:32:53.588Z,8.32
2023-01-29T08:35:20.811Z,8.31
2023-01-29T08:37:59.498Z,8.36
2023-01-29T08:40:27.137Z,8.39
2023-01-29T08:42:58.866Z,8.41
2023-01-29T08:45:27.158Z,8.41
2023-01-29T08:47:53.883Z,8.41
2023-01-29T08:50:20.728Z,8.38
2023-01-29T08:52:47.468Z,8.35
2023-01-29T08:55:14.401Z,8.40
2023-01-29T08:57:41.612Z,8.41
2023-01-29T09:00:09.550Z,8.41
2023-01-29T09:02:36.490Z,8.44
2023-01-29T09:05:03.310Z,8.40
2023-01-29T09:07:30.397Z,8.37
2023-01-29T09:09:57.138Z,8.34
2023-01-29T09:12:23.849Z,8.31
2023-01-29T09:14:50.578Z,8.36
2023-01-29T09:17:17.304Z,8.35
2023-01-29T09:19:43.957Z,8.38
2023-01-29T09:22:11.908Z,8.38
2023-01-29T09:24:38.780Z,8.41
2023-01-29T09:27:06.379Z,8.39
2023-01-29T09:29:35.765Z,8.39
2023-01-29T09:32:03.688Z,8.38
2023-01-29T09:34:30.578Z,8.41
2023-01-29T09:36:57.322Z,8.41
2023-01-29T09:39:24.055Z,8.41
2023-01-29T09:41:59.780Z,8.41
2023-01-29T09:44:33.607Z,8.45
2023-01-29T09:47:04.482Z,8.51
2023-01-29T09:49:32.775Z,8.50
2023-01-29T09:52:02.740Z,8.52
2023-01-29T09:54:40.345Z,8.52
2023-01-29T09:57:12.352Z,8.52
2023-01-29T09:59:39.049Z,8.56
2023-01-29T10:02:15.735Z,8.54
2023-01-29T10:04:52.822Z,8.60
2023-01-29T10:07:29.532Z,8.62
2023-01-29T10:10:05.628Z,8.59
2023-01-29T10:12:33.608Z,8.57
2023-01-29T10:15:11.132Z,8.59
2023-01-29T10:17:50.555Z,8.66
2023-01-29T10:20:26.613Z,8.74
2023-01-29T10:23:02.387Z,8.76
2023-01-29T10:25:29.578Z,8.78
2023-01-29T10:27:59.236Z,8.82
2023-01-29T10:30:31.736Z,8.89
2023-01-29T10:33:01.872Z,8.91
2023-01-29T10:35:31.567Z,8.90
2023-01-29T10:38:02.483Z,8.84
2023-01-29T10:40:38.852Z,8.84
2023-01-29T10:43:11.578Z,8.85
2023-01-29T10:45:44.605Z,8.88
2023-01-29T10:48:22.568Z,8.92
2023-01-29T10:50:59.042Z,8.94
2023-01-29T10:53:35.642Z,8.92
2023-01-29T10:56:22.416Z,8.93
2023-01-29T10:58:55.634Z,8.92
2023-01-29T11:01:22.739Z,8.90
2023-01-29T11:03:56.717Z,8.92
2023-01-29T11:06:25.768Z,8.95
2023-01-29T11:08:54.163Z,8.95
2023-01-29T11:11:22.731Z,8.90
2023-01-29T11:13:54.195Z,8.93
2023-01-29T11:16:21.797Z,8.96
2023-01-29T11:18:55.364Z,8.98
2023-01-29T11:21:23.052Z,9.02
2023-01-29T11:23:50.069Z,9.05
2023-01-29T11:26:22.526Z,9.06
2023-01-29T11:28:53.500Z,9.05
2023-01-29T11:31:22.153Z,9.06
2023-01-29T11:33:51.063Z,9.11
2023-01-29T11:36:22.220Z,9.19
2023-01-29T11:39:05.896Z,9.23
2023-01-29T11:41:43.093Z,9.25
2023-01-29T11:44:19.557Z,9.29
2023-01-29T11:46:46.815Z,9.33
2023-01-29T11:49:23.241Z,9.32
2023-01-29T11:51:52.798Z,9.32
2023-01-29T11:54:21.009Z,9.30
2023-01-29T11:56:48.698Z,9.29
2023-01-29T11:59:28.030Z,9.30
2023-01-29T12:01:55.215Z,9.34
2023-01-29T12:04:23.764Z,9.36
2023-01-29T12:06:53.434Z,9.35
2023-01-29T12:09:22.323Z,9.40
2023-01-29T12:11:49.635Z,9.44
2023-01-29T12:14:26.735Z,9.51
2023-01-29T12:17:03.723Z,9.65
2023-01-29T12:19:36.934Z,9.71
2023-01-29T12:22:06.968Z,9.77
2023-01-29T12:24:39.231Z,9.81
2023-01-29T12:27:06.537Z,9.82
2023-01-29T12:29:42.729Z,9.85
2023-01-29T12:32:11.450Z,9.85
2023-01-29T12:34:42.808Z,9.91
2023-01-29T12:37:19.629Z,9.94
2023-01-29T12:39:47.289Z,9.97
2023-01-29T12:42:19.564Z,9.96
2023-01-29T12:44:55.846Z,9.97
2023-01-29T12:47:28.439Z,10.04
2023-01-29T12:49:57.718Z,10.00
2023-01-29T12:52:36.772Z,10.00
2023-01-29T12:55:07.674Z,10.04
2023-01-29T12:57:36.337Z,10.03
2023-01-29T13:00:06.567Z,10.01
2023-01-29T13:02:37.660Z,10.06
2023-01-29T13:05:05.977Z,10.19
2023-01-29T13:07:36.303Z,10.31
2023-01-29T13:10:07.752Z,10.32
2023-01-29T13:12:35.158Z,10.24
2023-01-29T13:15:06.525Z,10.21
2023-01-29T13:17:36.341Z,10.16
2023-01-29T13:20:11.023Z,10.11
2023-01-29T13:22:39.409Z,10.11
2023-01-29T13:25:06.938Z,10.16
2023-01-29T13:27:35.556Z,10.19
2023-01-29T13:30:02.602Z,10.20
2023-01-29T13:32:33.413Z,10.21
2023-01-29T13:35:01.586Z,10.25
2023-01-29T13:37:28.624Z,10.29
2023-01-29T13:39:56.109Z,10.29
2023-01-29T13:42:26.107Z,10.31
2023-01-29T13:44:54.539Z,10.31
2023-01-29T13:47:24.252Z,10.33
2023-01-29T13:50:00.520Z,10.37
2023-01-29T13:52:37.924Z,10.37
2023-01-29T13:55:04.944Z,10.39
2023-01-29T13:57:41.629Z,10.40
2023-01-29T14:00:31.228Z,10.40
2023-01-29T14:03:03.008Z,10.38
2023-01-29T14:05:29.958Z,10.37
2023-01-29T14:07:57.234Z,10.36
2023-01-29T14:10:24.296Z,10.37
2023-01-29T14:12:52.214Z,10.37
2023-01-29T14:15:21.501Z,10.42
2023-01-29T14:18:00.120Z,10.48
2023-01-29T14:20:38.884Z,10.52
2023-01-29T14:23:21.844Z,10.56
2023-01-29T14:25:48.939Z,10.61
2023-01-29T14:28:19.979Z,10.66
2023-01-29T14:30:48.300Z,10.66
2023-01-29T14:33:24.460Z,10.69
2023-01-29T14:35:52.371Z,10.67
2023-01-29T14:38:19.663Z,10.68
2023-01-29T14:40:47.185Z,10.73
2023-01-29T14:43:20.393Z,10.71
2023-01-29T14:45:48.108Z,10.74
2023-01-29T14:48:34.759Z,10.79
2023-01-29T14:51:11.756Z,10.82
2023-01-29T14:53:48.621Z,10.83
2023-01-29T14:56:24.874Z,10.84
2023-01-29T14:58:55.343Z,10.85
2023-01-29T15:01:26.924Z,10.87
2023-01-29T15:03:58.968Z,10.89
2023-01-29T15:06:30.905Z,10.92
2023-01-29T15:09:07.080Z,10.97
2023-01-29T15:11:37.507Z,10.98
2023-01-29T15:14:08.868Z,10.98
2023-01-29T15:16:41.309Z,10.99
2023-01-29T15:19:13.624Z,11.00
2023-01-29T15:21:40.484Z,11.01
2023-01-29T15:24:07.812Z,11.01
2023-01-29T15:26:36.296Z,11.01
2023-01-29T15:29:04.857Z,11.02
2023-01-29T15:31:32.320Z,11.00
2023-01-29T15:34:04.862Z,11.01
2023-01-29T15:36:32.415Z,11.01
2023-01-29T15:39:08.469Z,10.99
2023-01-29T15:41:35.531Z,10.98
2023-01-29T15:44:02.385Z,10.97
2023-01-29T15:46:34.485Z,10.96
2023-01-29T15:49:02.723Z,10.96
2023-01-29T15:51:29.589Z,10.98
2023-01-29T15:53:59.576Z,10.99
2023-01-29T15:56:28.886Z,11.00
2023-01-29T15:58:57.914Z,11.04
2023-01-29T16:01:28.193Z,11.03
2023-01-29T16:03:56.238Z,11.02
2023-01-29T16:06:24.474Z,11.02
2023-01-29T16:08:52.508Z,11.01
2023-01-29T16:11:19.673Z,11.01
2023-01-29T16:13:48.577Z,10.99
2023-01-29T16:16:15.687Z,10.93
2023-01-29T16:18:59.030Z,10.92
2023-01-29T16:21:37.215Z,10.89
2023-01-29T16:24:09.861Z,10.87
2023-01-29T16:26:38.070Z,10.88
2023-01-29T16:29:06.451Z,10.85
2023-01-29T16:31:33.371Z,10.83
2023-01-29T16:34:07.087Z,10.82
2023-01-29T16:36:34.020Z,10.82
2023-01-29T16:39:02.488Z,10.80
2023-01-29T16:41:31.836Z,10.76
2023-01-29T16:44:00.365Z,10.73
2023-01-29T16:46:36.530Z,10.66
2023-01-29T16:49:23.183Z,10.62
2023-01-29T16:51:50.009Z,10.58
2023-01-29T16:54:18.602Z,10.56
2023-01-29T16:56:46.699Z,10.53
2023-01-29T16:59:18.069Z,10.53
2023-01-29T17:01:45.289Z,10.51
2023-01-29T17:04:15.086Z,10.51
2023-01-29T17:06:44.707Z,10.49
2023-01-29T17:09:21.041Z,10.49
2023-01-29T17:11:50.535Z,10.51
2023-01-29T17:14:19.509Z,10.48
2023-01-29T17:16:50.553Z,10.46
2023-01-29T17:19:20.888Z,10.44
2023-01-29T17:21:47.770Z,10.45
2023-01-29T17:24:14.592Z,10.45
2023-01-29T17:26:41.919Z,10.47
2023-01-29T17:29:18.402Z,10.50
2023-01-29T17:31:45.194Z,10.51
2023-01-29T17:34:14.432Z,10.53
2023-01-29T17:36:41.734Z,10.53
2023-01-29T17:39:19.033Z,10.50
2023-01-29T17:41:47.629Z,10.48
2023-01-29T17:44:14.440Z,10.44
2023-01-29T17:46:41.248Z,10.42
2023-01-29T17:49:21.094Z,10.41
2023-01-29T17:51:49.368Z,10.36
2023-01-29T17:54:16.363Z,10.33
2023-01-29T17:56:43.343Z,10.31
2023-01-29T17:59:14.613Z,10.28
2023-01-29T18:01:41.843Z,10.28
2023-01-29T18:04:09.644Z,10.27
2023-01-29T18:06:36.449Z,10.26
2023-01-29T18:09:03.797Z,10.25
2023-01-29T18:11:30.598Z,10.22
2023-01-29T18:13:57.469Z,10.17
2023-01-29T18:16:26.848Z,10.16
2023-01-29T18:18:53.716Z,10.15
2023-01-29T18:21:20.480Z,10.13
2023-01-29T18:23:47.310Z,10.13
2023-01-29T18:26:15.960Z,10.13
2023-01-29T18:28:43.950Z,10.13
2023-01-29T18:31:13.174Z,10.17
2023-01-29T18:33:40.767Z,10.15
2023-01-29T18:36:08.287Z,10.11
2023-01-29T18:38:35.175Z,10.09
2023-01-29T18:41:11.889Z,10.06
2023-01-29T18:43:39.727Z,10.03
2023-01-29T18:46:06.865Z,10.04
2023-01-29T18:48:34.049Z,10.03
2023-01-29T18:51:01.093Z,10.01
2023-01-29T18:53:27.873Z,10.00
2023-01-29T18:55:56.130Z,10.01
2023-01-29T18:58:26.541Z,10.01
2023-01-29T19:00:56.449Z,10.00
2023-01-29T19:03:23.330Z,10.00
2023-01-29T19:05:50.145Z,9.98
2023-01-29T19:08:17.024Z,10.01
2023-01-29T19:10:43.829Z,9.99
2023-01-29T19:13:10.815Z,9.96
2023-01-29T19:15:37.562Z,9.93
2023-01-29T19:18:04.662Z,9.92
2023-01-29T19:20:31.469Z,9.93
2023-01-29T19:22:58.255Z,9.93
2023-01-29T19:25:25.158Z,9.93
2023-01-29T19:27:51.961Z,9.93
2023-01-29T19:30:19.475Z,9.90
2023-01-29T19:32:46.346Z,9.86
2023-01-29T19:35:13.136Z,9.84
2023-01-29T19:37:40.700Z,9.81
2023-01-29T19:40:08.510Z,9.80
2023-01-29T19:42:37.602Z,9.78
2023-01-29T19:45:05.376Z,9.77
2023-01-29T19:47:32.750Z,9.73
2023-01-29T19:49:59.749Z,9.71
2023-01-29T19:52:50.155Z,9.70
2023-01-29T19:55:18.751Z,9.67
2023-01-29T19:57:45.827Z,9.67
2023-01-29T20:00:12.997Z,9.66
2023-01-29T20:02:39.729Z,9.64
2023-01-29T20:05:08.313Z,9.64
2023-01-29T20:07:36.131Z,9.63
2023-01-29T20:10:04.416Z,9.61
2023-01-29T20:12:31.540Z,9.61
2023-01-29T20:14:58.545Z,9.59
2023-01-29T20:17:25.654Z,9.55
2023-01-29T20:19:52.830Z,9.51
2023-01-29T20:22:20.133Z,9.48
2023-01-29T20:24:47.153Z,9.46
2023-01-29T20:27:14.427Z,9.43
2023-01-29T20:29:41.361Z,9.41
2023-01-29T20:32:09.207Z,9.41
2023-01-29T20:34:36.572Z,9.40
2023-01-29T20:37:03.377Z,9.37
2023-01-29T20:39:30.201Z,9.38
2023-01-29T20:41:57.494Z,9.37
2023-01-29T20:44:25.032Z,9.37
2023-01-29T20:46:52.260Z,9.37
2023-01-29T20:49:19.478Z,9.33
2023-01-29T20:51:46.547Z,9.34
2023-01-29T20:54:13.479Z,9.32
2023-01-29T20:56:46.030Z,9.33
2023-01-29T20:59:13.897Z,9.35
2023-01-29T21:01:41.584Z,9.34
2023-01-29T21:04:08.363Z,9.33
2023-01-29T21:06:35.069Z,9.33
2023-01-29T21:09:01.788Z,9.35
2023-01-29T21:11:28.823Z,9.35
2023-01-29T21:13:57.942Z,9.32
2023-01-29T21:16:26.435Z,9.30
2023-01-29T21:19:00.319Z,9.30
2023-01-29T21:21:27.315Z,9.30
2023-01-29T21:23:54.572Z,9.30
2023-01-29T21:26:21.355Z,9.30
2023-01-29T21:28:48.109Z,9.29
2023-01-29T21:31:16.482Z,9.26
2023-01-29T21:33:43.540Z,9.24
2023-01-29T21:36:10.402Z,9.24
2023-01-29T21:38:37.410Z,9.27
2023-01-29T21:41:05.202Z,9.26
2023-01-29T21:43:31.955Z,9.26
2023-01-29T21:46:05.321Z,9.22
2023-01-29T21:48:32.454Z,9.19
2023-01-29T21:50:59.423Z,9.21
2023-01-29T21:53:26.317Z,9.23
2023-01-29T21:55:53.161Z,9.22
2023-01-29T21:58:20.884Z,9.21
2023-01-29T22:00:49.080Z,9.17
2023-01-29T22:03:16.531Z,9.13
2023-01-29T22:05:43.278Z,9.15
2023-01-29T22:08:11.524Z,9.17
2023-01-29T22:10:39.311Z,9.23
2023-01-29T22:13:06.067Z,9.22
2023-01-29T22:15:32.792Z,9.23
2023-01-29T22:17:59.622Z,9.22
2023-01-29T22:20:30.557Z,9.17
2023-01-29T22:22:59.112Z,9.17
2023-01-29T22:25:25.887Z,9.12
2023-01-29T22:27:52.797Z,9.12
2023-01-29T22:30:20.045Z,9.12
2023-01-29T22:32:47.064Z,9.15
2023-01-29T22:35:13.845Z,9.10
2023-01-29T22:37:40.711Z,9.04
2023-01-29T22:40:07.863Z,8.99
2023-01-29T22:42:34.589Z,8.98
2023-01-29T22:45:01.296Z,8.95
2023-01-29T22:47:27.938Z,8.95
2023-01-29T22:49:54.607Z,8.95
2023-01-29T22:52:23.732Z,8.98
2023-01-29T22:54:51.620Z,8.98
2023-01-29T22:57:19.387Z,8.97
2023-01-29T22:59:46.228Z,9.00
2023-01-29T23:02:12.868Z,8.99
2023-01-29T23:04:39.629Z,8.95
2023-01-29T23:07:06.411Z,8.91
2023-01-29T23:09:33.094Z,8.91
2023-01-29T23:12:03.544Z,8.89
2023-01-29T23:14:30.149Z,8.89
2023-01-29T23:16:57.162Z,8.87
2023-01-29T23:19:24.015Z,8.87
2023-01-29T23:21:50.737Z,8.87
2023-01-29T23:24:17.423Z,8.89
2023-01-29T23:26:54.316Z,8.87
2023-01-29T23:29:21.648Z,8.86
2023-01-29T23:31:48.478Z,8.87
2023-01-29T23:34:15.364Z,8.88
2023-01-29T23:36:42.103Z,8.91
2023-01-29T23:39:08.835Z,8.89
2023-01-29T23:41:36.400Z,8.89
2023-01-29T23:44:03.231Z,8.90
2023-01-29T23:46:30.163Z,8.88
2023-01-29T23:48:56.997Z,8.88
2023-01-29T23:51:23.853Z,8.90
2023-01-29T23:53:50.602Z,8.90
2023-01-29T23:56:17.417Z,8.88
2023-01-29T23:58:45.116Z,8.85
